sensor_id;sensor_type;location;lat;lon;timestamp;temperature;humidity
66213;SHT31;53015;50.046;8.238;2023-07-22T00:02:15;16.95;74.50
66213;SHT31;53015;50.046;8.238;2023-07-22T00:04:41;16.83;74.82
66213;SHT31;53015;50.046;8.238;2023-07-22T00:07:07;16.91;74.56
66213;SHT31;53015;50.046;8.238;2023-07-22T00:09:33;16.81;74.81
66213;SHT31;53015;50.046;8.238;2023-07-22T00:11:59;16.54;75.53
66213;SHT31;53015;50.046;8.238;2023-07-22T00:14:24;16.61;75.00
66213;SHT31;53015;50.046;8.238;2023-07-22T00:16:50;16.68;75.00
66213;SHT31;53015;50.046;8.238;2023-07-22T00:19:15;16.53;75.45
66213;SHT31;53015;50.046;8.238;2023-07-22T00:21:41;16.53;75.56
66213;SHT31;53015;50.046;8.238;2023-07-22T00:24:08;16.50;75.71
66213;SHT31;53015;50.046;8.238;2023-07-22T00:26:34;16.36;76.08
66213;SHT31;53015;50.046;8.238;2023-07-22T00:28:59;16.43;75.90
66213;SHT31;53015;50.046;8.238;2023-07-22T00:31:25;16.34;75.94
66213;SHT31;53015;50.046;8.238;2023-07-22T00:33:50;16.36;75.96
66213;SHT31;53015;50.046;8.238;2023-07-22T00:36:16;16.39;75.88
66213;SHT31;53015;50.046;8.238;2023-07-22T00:38:41;16.45;75.62
66213;SHT31;53015;50.046;8.238;2023-07-22T00:41:08;16.34;75.68
66213;SHT31;53015;50.046;8.238;2023-07-22T00:43:34;16.40;75.64
66213;SHT31;53015;50.046;8.238;2023-07-22T00:45:59;16.34;75.92
66213;SHT31;53015;50.046;8.238;2023-07-22T00:48:25;16.30;76.12
66213;SHT31;53015;50.046;8.238;2023-07-22T00:50:52;16.25;76.09
66213;SHT31;53015;50.046;8.238;2023-07-22T00:53:17;16.32;75.84
66213;SHT31;53015;50.046;8.238;2023-07-22T00:55:44;16.19;75.79
66213;SHT31;53015;50.046;8.238;2023-07-22T00:58:11;16.08;76.27
66213;SHT31;53015;50.046;8.238;2023-07-22T01:00:37;15.99;76.83
66213;SHT31;53015;50.046;8.238;2023-07-22T01:03:03;15.95;76.66
66213;SHT31;53015;50.046;8.238;2023-07-22T01:05:30;15.85;77.04
66213;SHT31;53015;50.046;8.238;2023-07-22T01:07:56;15.85;76.83
66213;SHT31;53015;50.046;8.238;2023-07-22T01:10:22;15.74;76.53
66213;SHT31;53015;50.046;8.238;2023-07-22T01:12:48;15.84;76.09
66213;SHT31;53015;50.046;8.238;2023-07-22T01:15:14;15.75;76.49
66213;SHT31;53015;50.046;8.238;2023-07-22T01:17:40;15.84;76.56
66213;SHT31;53015;50.046;8.238;2023-07-22T01:20:07;15.91;76.49
66213;SHT31;53015;50.046;8.238;2023-07-22T01:22:33;15.97;76.27
66213;SHT31;53015;50.046;8.238;2023-07-22T01:25:00;15.98;76.23
66213;SHT31;53015;50.046;8.238;2023-07-22T01:27:26;15.85;76.55
66213;SHT31;53015;50.046;8.238;2023-07-22T01:29:51;15.81;77.10
66213;SHT31;53015;50.046;8.238;2023-07-22T01:32:17;15.68;77.58
66213;SHT31;53015;50.046;8.238;2023-07-22T01:34:43;15.50;77.81
66213;SHT31;53015;50.046;8.238;2023-07-22T01:37:08;15.47;78.01
66213;SHT31;53015;50.046;8.238;2023-07-22T01:39:34;15.33;78.34
66213;SHT31;53015;50.046;8.238;2023-07-22T01:42:01;15.37;78.18
66213;SHT31;53015;50.046;8.238;2023-07-22T01:44:26;15.25;78.45
66213;SHT31;53015;50.046;8.238;2023-07-22T01:46:52;15.20;78.81
66213;SHT31;53015;50.046;8.238;2023-07-22T01:49:17;15.18;78.83
66213;SHT31;53015;50.046;8.238;2023-07-22T01:51:43;15.10;79.02
66213;SHT31;53015;50.046;8.238;2023-07-22T01:54:09;15.10;79.09
66213;SHT31;53015;50.046;8.238;2023-07-22T01:56:34;15.09;78.75
66213;SHT31;53015;50.046;8.238;2023-07-22T01:59:01;15.15;78.77
66213;SHT31;53015;50.046;8.238;2023-07-22T02:01:27;15.00;78.95
66213;SHT31;53015;50.046;8.238;2023-07-22T02:03:52;15.16;78.67
66213;SHT31;53015;50.046;8.238;2023-07-22T02:06:18;15.02;79.02
66213;SHT31;53015;50.046;8.238;2023-07-22T02:08:43;15.05;78.90
66213;SHT31;53015;50.046;8.238;2023-07-22T02:11:09;15.00;78.99
66213;SHT31;53015;50.046;8.238;2023-07-22T02:13:35;14.75;79.50
66213;SHT31;53015;50.046;8.238;2023-07-22T02:16:02;14.84;79.49
66213;SHT31;53015;50.046;8.238;2023-07-22T02:18:28;14.82;79.32
66213;SHT31;53015;50.046;8.238;2023-07-22T02:20:54;14.82;79.28
66213;SHT31;53015;50.046;8.238;2023-07-22T02:23:19;14.85;79.15
66213;SHT31;53015;50.046;8.238;2023-07-22T02:25:48;14.82;79.33
66213;SHT31;53015;50.046;8.238;2023-07-22T02:28:14;14.71;79.74
66213;SHT31;53015;50.046;8.238;2023-07-22T02:30:39;14.64;79.89
66213;SHT31;53015;50.046;8.238;2023-07-22T02:33:06;14.56;80.16
66213;SHT31;53015;50.046;8.238;2023-07-22T02:35:32;14.61;80.08
66213;SHT31;53015;50.046;8.238;2023-07-22T02:37:57;14.50;80.34
66213;SHT31;53015;50.046;8.238;2023-07-22T02:40:23;14.43;80.78
66213;SHT31;53015;50.046;8.238;2023-07-22T02:42:48;14.23;81.13
66213;SHT31;53015;50.046;8.238;2023-07-22T02:45:14;14.20;81.15
66213;SHT31;53015;50.046;8.238;2023-07-22T02:47:39;14.16;81.26
66213;SHT31;53015;50.046;8.238;2023-07-22T02:50:07;13.98;81.51
66213;SHT31;53015;50.046;8.238;2023-07-22T02:52:33;13.90;81.99
66213;SHT31;53015;50.046;8.238;2023-07-22T02:55:09;13.95;81.55
66213;SHT31;53015;50.046;8.238;2023-07-22T02:57:35;14.12;81.52
66213;SHT31;53015;50.046;8.238;2023-07-22T03:00:01;13.98;81.69
66213;SHT31;53015;50.046;8.238;2023-07-22T03:02:27;13.98;81.65
66213;SHT31;53015;50.046;8.238;2023-07-22T03:04:52;13.82;82.05
66213;SHT31;53015;50.046;8.238;2023-07-22T03:07:19;13.82;82.18
66213;SHT31;53015;50.046;8.238;2023-07-22T03:09:45;13.62;82.54
66213;SHT31;53015;50.046;8.238;2023-07-22T03:12:10;13.37;83.40
66213;SHT31;53015;50.046;8.238;2023-07-22T03:14:36;13.46;83.16
66213;SHT31;53015;50.046;8.238;2023-07-22T03:17:01;13.62;83.03
66213;SHT31;53015;50.046;8.238;2023-07-22T03:19:27;13.74;82.42
66213;SHT31;53015;50.046;8.238;2023-07-22T03:21:52;13.85;82.47
66213;SHT31;53015;50.046;8.238;2023-07-22T03:24:19;13.79;82.20
66213;SHT31;53015;50.046;8.238;2023-07-22T03:26:45;13.79;82.45
66213;SHT31;53015;50.046;8.238;2023-07-22T03:29:10;13.98;82.08
66213;SHT31;53015;50.046;8.238;2023-07-22T03:31:35;13.95;81.87
66213;SHT31;53015;50.046;8.238;2023-07-22T03:34:01;13.98;81.84
66213;SHT31;53015;50.046;8.238;2023-07-22T03:36:26;13.96;81.91
66213;SHT31;53015;50.046;8.238;2023-07-22T03:38:52;13.77;82.41
66213;SHT31;53015;50.046;8.238;2023-07-22T03:41:19;13.74;82.74
66213;SHT31;53015;50.046;8.238;2023-07-22T03:43:44;13.69;82.77
66213;SHT31;53015;50.046;8.238;2023-07-22T03:46:10;13.58;83.10
66213;SHT31;53015;50.046;8.238;2023-07-22T03:48:35;13.69;82.67
66213;SHT31;53015;50.046;8.238;2023-07-22T03:51:01;13.51;83.41
66213;SHT31;53015;50.046;8.238;2023-07-22T03:53:26;13.44;83.50
66213;SHT31;53015;50.046;8.238;2023-07-22T03:55:52;13.34;83.46
66213;SHT31;53015;50.046;8.238;2023-07-22T03:58:19;13.28;83.49
66213;SHT31;53015;50.046;8.238;2023-07-22T04:00:48;13.58;83.05
66213;SHT31;53015;50.046;8.238;2023-07-22T04:03:14;13.68;82.63
66213;SHT31;53015;50.046;8.238;2023-07-22T04:05:40;13.67;82.19
66213;SHT31;53015;50.046;8.238;2023-07-22T04:08:05;13.68;82.65
66213;SHT31;53015;50.046;8.238;2023-07-22T04:10:31;13.53;83.15
66213;SHT31;53015;50.046;8.238;2023-07-22T04:12:56;13.64;83.18
66213;SHT31;53015;50.046;8.238;2023-07-22T04:15:23;13.62;83.16
66213;SHT31;53015;50.046;8.238;2023-07-22T04:17:49;13.72;82.59
66213;SHT31;53015;50.046;8.238;2023-07-22T04:20:15;13.68;82.44
66213;SHT31;53015;50.046;8.238;2023-07-22T04:22:41;13.79;82.32
66213;SHT31;53015;50.046;8.238;2023-07-22T04:25:07;13.68;82.78
66213;SHT31;53015;50.046;8.238;2023-07-22T04:27:33;13.74;82.64
66213;SHT31;53015;50.046;8.238;2023-07-22T04:29:58;13.62;82.80
66213;SHT31;53015;50.046;8.238;2023-07-22T04:32:25;13.58;82.77
66213;SHT31;53015;50.046;8.238;2023-07-22T04:34:51;13.75;82.47
66213;SHT31;53015;50.046;8.238;2023-07-22T04:37:16;13.61;82.73
66213;SHT31;53015;50.046;8.238;2023-07-22T04:39:42;13.79;82.07
66213;SHT31;53015;50.046;8.238;2023-07-22T04:42:07;13.86;81.99
66213;SHT31;53015;50.046;8.238;2023-07-22T04:44:33;13.90;81.97
66213;SHT31;53015;50.046;8.238;2023-07-22T04:46:58;14.02;81.94
66213;SHT31;53015;50.046;8.238;2023-07-22T04:49:25;13.95;81.44
66213;SHT31;53015;50.046;8.238;2023-07-22T04:51:51;13.74;82.12
66213;SHT31;53015;50.046;8.238;2023-07-22T04:54:17;13.69;82.38
66213;SHT31;53015;50.046;8.238;2023-07-22T04:56:42;13.81;82.26
66213;SHT31;53015;50.046;8.238;2023-07-22T04:59:08;14.06;81.55
66213;SHT31;53015;50.046;8.238;2023-07-22T05:01:34;14.29;81.33
66213;SHT31;53015;50.046;8.238;2023-07-22T05:03:59;14.30;80.85
66213;SHT31;53015;50.046;8.238;2023-07-22T05:06:27;14.06;81.16
66213;SHT31;53015;50.046;8.238;2023-07-22T05:08:53;14.08;81.37
66213;SHT31;53015;50.046;8.238;2023-07-22T05:11:18;13.99;81.64
66213;SHT31;53015;50.046;8.238;2023-07-22T05:13:44;13.98;82.06
66213;SHT31;53015;50.046;8.238;2023-07-22T05:16:09;13.94;82.49
66213;SHT31;53015;50.046;8.238;2023-07-22T05:18:35;13.98;82.42
66213;SHT31;53015;50.046;8.238;2023-07-22T05:21:00;14.13;82.31
66213;SHT31;53015;50.046;8.238;2023-07-22T05:23:27;14.20;81.94
66213;SHT31;53015;50.046;8.238;2023-07-22T05:25:53;14.20;82.29
66213;SHT31;53015;50.046;8.238;2023-07-22T05:28:19;14.23;82.63
66213;SHT31;53015;50.046;8.238;2023-07-22T05:30:45;14.29;83.09
66213;SHT31;53015;50.046;8.238;2023-07-22T05:33:10;14.32;83.08
66213;SHT31;53015;50.046;8.238;2023-07-22T05:35:36;14.70;82.13
66213;SHT31;53015;50.046;8.238;2023-07-22T05:38:02;14.91;81.22
66213;SHT31;53015;50.046;8.238;2023-07-22T05:40:28;14.84;81.19
66213;SHT31;53015;50.046;8.238;2023-07-22T05:42:54;14.85;81.04
66213;SHT31;53015;50.046;8.238;2023-07-22T05:45:19;15.16;79.75
66213;SHT31;53015;50.046;8.238;2023-07-22T05:47:45;15.26;79.50
66213;SHT31;53015;50.046;8.238;2023-07-22T05:50:10;15.15;79.36
66213;SHT31;53015;50.046;8.238;2023-07-22T05:52:36;15.49;78.89
66213;SHT31;53015;50.046;8.238;2023-07-22T05:55:02;15.55;78.30
66213;SHT31;53015;50.046;8.238;2023-07-22T05:57:29;15.77;77.98
66213;SHT31;53015;50.046;8.238;2023-07-22T05:59:54;15.85;77.64
66213;SHT31;53015;50.046;8.238;2023-07-22T06:02:20;15.82;77.87
66213;SHT31;53015;50.046;8.238;2023-07-22T06:04:45;15.99;77.38
66213;SHT31;53015;50.046;8.238;2023-07-22T06:07:10;16.25;76.24
66213;SHT31;53015;50.046;8.238;2023-07-22T06:09:36;16.39;76.10
66213;SHT31;53015;50.046;8.238;2023-07-22T06:12:02;16.73;75.59
66213;SHT31;53015;50.046;8.238;2023-07-22T06:14:29;16.84;75.13
66213;SHT31;53015;50.046;8.238;2023-07-22T06:16:55;16.94;74.78
66213;SHT31;53015;50.046;8.238;2023-07-22T06:19:20;17.05;74.03
66213;SHT31;53015;50.046;8.238;2023-07-22T06:21:46;17.36;73.96
66213;SHT31;53015;50.046;8.238;2023-07-22T06:24:11;17.51;73.80
66213;SHT31;53015;50.046;8.238;2023-07-22T06:26:37;17.62;73.83
66213;SHT31;53015;50.046;8.238;2023-07-22T06:29:02;17.81;72.82
66213;SHT31;53015;50.046;8.238;2023-07-22T06:31:29;17.86;71.69
66213;SHT31;53015;50.046;8.238;2023-07-22T06:33:55;18.09;71.92
66213;SHT31;53015;50.046;8.238;2023-07-22T06:36:20;18.14;71.88
66213;SHT31;53015;50.046;8.238;2023-07-22T06:38:46;18.08;71.78
66213;SHT31;53015;50.046;8.238;2023-07-22T06:41:11;18.26;72.15
66213;SHT31;53015;50.046;8.238;2023-07-22T06:43:37;18.25;72.04
66213;SHT31;53015;50.046;8.238;2023-07-22T06:46:02;18.22;72.41
66213;SHT31;53015;50.046;8.238;2023-07-22T06:48:29;18.02;72.70
66213;SHT31;53015;50.046;8.238;2023-07-22T06:50:55;18.02;71.65
66213;SHT31;53015;50.046;8.238;2023-07-22T06:53:20;18.01;71.59
66213;SHT31;53015;50.046;8.238;2023-07-22T06:55:49;17.90;71.84
66213;SHT31;53015;50.046;8.238;2023-07-22T06:58:15;17.76;72.40
66213;SHT31;53015;50.046;8.238;2023-07-22T07:00:40;17.83;71.78
66213;SHT31;53015;50.046;8.238;2023-07-22T07:03:06;17.88;71.20
66213;SHT31;53015;50.046;8.238;2023-07-22T07:05:33;18.08;70.41
66213;SHT31;53015;50.046;8.238;2023-07-22T07:07:58;18.14;70.98
66213;SHT31;53015;50.046;8.238;2023-07-22T07:10:24;18.21;70.61
66213;SHT31;53015;50.046;8.238;2023-07-22T07:12:49;18.36;70.07
66213;SHT31;53015;50.046;8.238;2023-07-22T07:15:15;18.25;70.29
66213;SHT31;53015;50.046;8.238;2023-07-22T07:17:40;18.29;69.68
66213;SHT31;53015;50.046;8.238;2023-07-22T07:20:07;18.50;70.06
66213;SHT31;53015;50.046;8.238;2023-07-22T07:22:34;18.63;69.83
66213;SHT31;53015;50.046;8.238;2023-07-22T07:24:59;18.71;69.77
66213;SHT31;53015;50.046;8.238;2023-07-22T07:27:25;18.67;69.92
66213;SHT31;53015;50.046;8.238;2023-07-22T07:29:50;18.76;70.09
66213;SHT31;53015;50.046;8.238;2023-07-22T07:32:15;18.97;68.79
66213;SHT31;53015;50.046;8.238;2023-07-22T07:34:41;18.93;68.87
66213;SHT31;53015;50.046;8.238;2023-07-22T07:37:06;19.11;68.85
66213;SHT31;53015;50.046;8.238;2023-07-22T07:39:33;19.43;68.13
66213;SHT31;53015;50.046;8.238;2023-07-22T07:41:59;19.48;67.93
66213;SHT31;53015;50.046;8.238;2023-07-22T07:44:24;19.67;66.75
66213;SHT31;53015;50.046;8.238;2023-07-22T07:46:50;19.62;64.18
66213;SHT31;53015;50.046;8.238;2023-07-22T07:49:17;19.96;64.17
66213;SHT31;53015;50.046;8.238;2023-07-22T07:51:42;20.42;63.22
66213;SHT31;53015;50.046;8.238;2023-07-22T07:54:08;20.93;62.36
66213;SHT31;53015;50.046;8.238;2023-07-22T07:56:35;20.73;61.71
66213;SHT31;53015;50.046;8.238;2023-07-22T07:59:01;21.04;61.19
66213;SHT31;53015;50.046;8.238;2023-07-22T08:01:26;21.42;61.06
66213;SHT31;53015;50.046;8.238;2023-07-22T08:03:52;21.90;60.06
66213;SHT31;53015;50.046;8.238;2023-07-22T08:06:17;22.14;58.72
66213;SHT31;53015;50.046;8.238;2023-07-22T08:08:43;21.67;60.32
66213;SHT31;53015;50.046;8.238;2023-07-22T08:11:10;21.86;61.02
66213;SHT31;53015;50.046;8.238;2023-07-22T08:13:37;21.73;60.69
66213;SHT31;53015;50.046;8.238;2023-07-22T08:16:04;21.55;60.87
66213;SHT31;53015;50.046;8.238;2023-07-22T08:18:30;21.51;61.53
66213;SHT31;53015;50.046;8.238;2023-07-22T08:20:56;21.59;61.03
66213;SHT31;53015;50.046;8.238;2023-07-22T08:23:22;21.58;60.22
66213;SHT31;53015;50.046;8.238;2023-07-22T08:25:48;21.83;60.67
66213;SHT31;53015;50.046;8.238;2023-07-22T08:28:14;22.04;60.83
66213;SHT31;53015;50.046;8.238;2023-07-22T08:30:41;22.22;59.84
66213;SHT31;53015;50.046;8.238;2023-07-22T08:33:06;22.49;59.83
66213;SHT31;53015;50.046;8.238;2023-07-22T08:35:33;22.22;59.14
66213;SHT31;53015;50.046;8.238;2023-07-22T08:37:59;22.17;59.64
66213;SHT31;53015;50.046;8.238;2023-07-22T08:40:24;22.02;60.74
66213;SHT31;53015;50.046;8.238;2023-07-22T08:42:50;21.99;60.42
66213;SHT31;53015;50.046;8.238;2023-07-22T08:45:16;21.81;60.28
66213;SHT31;53015;50.046;8.238;2023-07-22T08:47:45;21.93;60.89
66213;SHT31;53015;50.046;8.238;2023-07-22T08:50:15;21.96;60.78
66213;SHT31;53015;50.046;8.238;2023-07-22T08:52:41;22.38;60.73
66213;SHT31;53015;50.046;8.238;2023-07-22T08:55:08;22.58;57.69
66213;SHT31;53015;50.046;8.238;2023-07-22T08:57:35;22.72;57.86
66213;SHT31;53015;50.046;8.238;2023-07-22T09:00:01;23.03;57.09
66213;SHT31;53015;50.046;8.238;2023-07-22T09:02:26;23.31;56.99
66213;SHT31;53015;50.046;8.238;2023-07-22T09:04:54;23.37;56.70
66213;SHT31;53015;50.046;8.238;2023-07-22T09:07:19;23.23;56.88
66213;SHT31;53015;50.046;8.238;2023-07-22T09:09:46;23.31;57.13
66213;SHT31;53015;50.046;8.238;2023-07-22T09:12:12;23.33;56.68
66213;SHT31;53015;50.046;8.238;2023-07-22T09:14:40;23.10;57.01
66213;SHT31;53015;50.046;8.238;2023-07-22T09:17:06;23.23;56.34
66213;SHT31;53015;50.046;8.238;2023-07-22T09:19:31;23.37;56.48
66213;SHT31;53015;50.046;8.238;2023-07-22T09:21:58;23.44;54.66
66213;SHT31;53015;50.046;8.238;2023-07-22T09:24:25;23.51;53.79
66213;SHT31;53015;50.046;8.238;2023-07-22T09:26:51;23.39;53.26
66213;SHT31;53015;50.046;8.238;2023-07-22T09:29:17;23.16;53.02
66213;SHT31;53015;50.046;8.238;2023-07-22T09:31:49;23.00;54.17
66213;SHT31;53015;50.046;8.238;2023-07-22T09:34:15;23.09;54.01
66213;SHT31;53015;50.046;8.238;2023-07-22T09:36:51;23.14;54.12
66213;SHT31;53015;50.046;8.238;2023-07-22T09:39:18;22.95;53.95
66213;SHT31;53015;50.046;8.238;2023-07-22T09:41:44;23.06;54.45
66213;SHT31;53015;50.046;8.238;2023-07-22T09:44:10;23.16;53.82
66213;SHT31;53015;50.046;8.238;2023-07-22T09:46:35;23.34;53.03
66213;SHT31;53015;50.046;8.238;2023-07-22T09:49:03;23.51;53.03
66213;SHT31;53015;50.046;8.238;2023-07-22T09:51:33;23.53;53.32
66213;SHT31;53015;50.046;8.238;2023-07-22T09:54:00;23.54;51.00
66213;SHT31;53015;50.046;8.238;2023-07-22T09:56:27;23.95;50.27
66213;SHT31;53015;50.046;8.238;2023-07-22T09:58:53;24.01;48.63
66213;SHT31;53015;50.046;8.238;2023-07-22T10:01:20;24.10;48.49
66213;SHT31;53015;50.046;8.238;2023-07-22T10:03:49;24.22;48.66
66213;SHT31;53015;50.046;8.238;2023-07-22T10:06:16;24.39;48.26
66213;SHT31;53015;50.046;8.238;2023-07-22T10:08:43;24.44;48.29
66213;SHT31;53015;50.046;8.238;2023-07-22T10:11:11;24.65;47.98
66213;SHT31;53015;50.046;8.238;2023-07-22T10:13:38;24.95;47.58
66213;SHT31;53015;50.046;8.238;2023-07-22T10:16:05;25.43;47.03
66213;SHT31;53015;50.046;8.238;2023-07-22T10:18:31;25.54;46.69
66213;SHT31;53015;50.046;8.238;2023-07-22T10:20:58;24.77;46.68
66213;SHT31;53015;50.046;8.238;2023-07-22T10:23:25;24.47;48.33
66213;SHT31;53015;50.046;8.238;2023-07-22T10:25:52;24.37;48.37
66213;SHT31;53015;50.046;8.238;2023-07-22T10:28:19;24.70;48.29
66213;SHT31;53015;50.046;8.238;2023-07-22T10:30:46;25.06;48.08
66213;SHT31;53015;50.046;8.238;2023-07-22T10:33:12;24.99;47.35
66213;SHT31;53015;50.046;8.238;2023-07-22T10:35:41;24.84;46.86
66213;SHT31;53015;50.046;8.238;2023-07-22T10:38:08;24.82;47.54
66213;SHT31;53015;50.046;8.238;2023-07-22T10:40:44;24.16;47.92
66213;SHT31;53015;50.046;8.238;2023-07-22T10:43:10;24.16;48.32
66213;SHT31;53015;50.046;8.238;2023-07-22T10:45:40;23.90;49.42
66213;SHT31;53015;50.046;8.238;2023-07-22T10:48:08;23.72;49.46
66213;SHT31;53015;50.046;8.238;2023-07-22T10:50:39;23.60;49.89
66213;SHT31;53015;50.046;8.238;2023-07-22T10:53:04;23.68;49.84
66213;SHT31;53015;50.046;8.238;2023-07-22T10:55:30;23.75;49.30
66213;SHT31;53015;50.046;8.238;2023-07-22T10:58:04;23.71;49.40
66213;SHT31;53015;50.046;8.238;2023-07-22T11:00:30;23.72;50.00
66213;SHT31;53015;50.046;8.238;2023-07-22T11:03:14;23.64;50.10
66213;SHT31;53015;50.046;8.238;2023-07-22T11:05:50;23.81;50.10
66213;SHT31;53015;50.046;8.238;2023-07-22T11:08:16;23.99;49.93
66213;SHT31;53015;50.046;8.238;2023-07-22T11:10:52;23.90;49.54
66213;SHT31;53015;50.046;8.238;2023-07-22T11:13:26;23.96;50.05
66213;SHT31;53015;50.046;8.238;2023-07-22T11:15:52;24.06;49.56
66213;SHT31;53015;50.046;8.238;2023-07-22T11:18:19;24.16;48.73
66213;SHT31;53015;50.046;8.238;2023-07-22T11:20:44;24.19;48.97
66213;SHT31;53015;50.046;8.238;2023-07-22T11:23:10;24.75;48.32
66213;SHT31;53015;50.046;8.238;2023-07-22T11:25:35;24.70;47.10
66213;SHT31;53015;50.046;8.238;2023-07-22T11:28:01;24.75;47.15
66213;SHT31;53015;50.046;8.238;2023-07-22T11:30:28;24.99;46.81
66213;SHT31;53015;50.046;8.238;2023-07-22T11:32:57;25.09;46.80
66213;SHT31;53015;50.046;8.238;2023-07-22T11:35:24;25.12;45.97
66213;SHT31;53015;50.046;8.238;2023-07-22T11:38:00;25.22;46.52
66213;SHT31;53015;50.046;8.238;2023-07-22T11:40:33;25.59;45.70
66213;SHT31;53015;50.046;8.238;2023-07-22T11:42:58;25.35;46.15
66213;SHT31;53015;50.046;8.238;2023-07-22T11:45:24;25.61;46.02
66213;SHT31;53015;50.046;8.238;2023-07-22T11:47:49;25.53;45.66
66213;SHT31;53015;50.046;8.238;2023-07-22T11:50:15;25.98;45.65
66213;SHT31;53015;50.046;8.238;2023-07-22T11:52:42;26.09;45.47
66213;SHT31;53015;50.046;8.238;2023-07-22T11:55:08;26.15;44.53
66213;SHT31;53015;50.046;8.238;2023-07-22T11:57:33;26.26;44.63
66213;SHT31;53015;50.046;8.238;2023-07-22T11:59:59;25.64;44.65
66213;SHT31;53015;50.046;8.238;2023-07-22T12:02:25;25.91;45.45
66213;SHT31;53015;50.046;8.238;2023-07-22T12:04:52;26.21;44.17
66213;SHT31;53015;50.046;8.238;2023-07-22T12:07:23;25.75;44.19
66213;SHT31;53015;50.046;8.238;2023-07-22T12:09:51;25.95;43.96
66213;SHT31;53015;50.046;8.238;2023-07-22T12:12:16;25.74;43.85
66213;SHT31;53015;50.046;8.238;2023-07-22T12:14:41;25.88;43.31
66213;SHT31;53015;50.046;8.238;2023-07-22T12:17:08;25.71;43.84
66213;SHT31;53015;50.046;8.238;2023-07-22T12:19:34;25.80;43.78
66213;SHT31;53015;50.046;8.238;2023-07-22T12:22:00;25.67;43.41
66213;SHT31;53015;50.046;8.238;2023-07-22T12:24:26;25.70;43.57
66213;SHT31;53015;50.046;8.238;2023-07-22T12:26:53;25.67;43.46
66213;SHT31;53015;50.046;8.238;2023-07-22T12:29:19;25.77;44.07
66213;SHT31;53015;50.046;8.238;2023-07-22T12:31:45;25.71;43.89
66213;SHT31;53015;50.046;8.238;2023-07-22T12:34:10;25.66;43.60
66213;SHT31;53015;50.046;8.238;2023-07-22T12:36:36;25.47;43.48
66213;SHT31;53015;50.046;8.238;2023-07-22T12:39:01;25.60;43.60
66213;SHT31;53015;50.046;8.238;2023-07-22T12:41:27;25.30;43.63
66213;SHT31;53015;50.046;8.238;2023-07-22T12:43:54;25.47;43.58
66213;SHT31;53015;50.046;8.238;2023-07-22T12:46:19;25.81;43.85
66213;SHT31;53015;50.046;8.238;2023-07-22T12:48:45;26.17;42.98
66213;SHT31;53015;50.046;8.238;2023-07-22T12:51:11;26.29;42.78
66213;SHT31;53015;50.046;8.238;2023-07-22T12:53:36;26.39;41.51
66213;SHT31;53015;50.046;8.238;2023-07-22T12:56:02;26.66;42.02
66213;SHT31;53015;50.046;8.238;2023-07-22T12:58:28;26.83;40.49
66213;SHT31;53015;50.046;8.238;2023-07-22T13:00:55;26.76;40.15
66213;SHT31;53015;50.046;8.238;2023-07-22T13:03:20;26.76;39.62
66213;SHT31;53015;50.046;8.238;2023-07-22T13:05:46;27.08;39.04
66213;SHT31;53015;50.046;8.238;2023-07-22T13:08:11;27.56;39.08
66213;SHT31;53015;50.046;8.238;2023-07-22T13:10:37;27.28;38.61
66213;SHT31;53015;50.046;8.238;2023-07-22T13:13:03;27.59;39.07
66213;SHT31;53015;50.046;8.238;2023-07-22T13:15:28;27.19;38.34
66213;SHT31;53015;50.046;8.238;2023-07-22T13:17:55;27.53;39.32
66213;SHT31;53015;50.046;8.238;2023-07-22T13:20:20;27.16;40.08
66213;SHT31;53015;50.046;8.238;2023-07-22T13:22:46;26.94;39.37
66213;SHT31;53015;50.046;8.238;2023-07-22T13:25:11;27.00;39.96
66213;SHT31;53015;50.046;8.238;2023-07-22T13:27:37;27.11;38.91
66213;SHT31;53015;50.046;8.238;2023-07-22T13:30:03;26.67;39.61
66213;SHT31;53015;50.046;8.238;2023-07-22T13:32:28;26.53;39.77
66213;SHT31;53015;50.046;8.238;2023-07-22T13:34:55;26.80;40.17
66213;SHT31;53015;50.046;8.238;2023-07-22T13:37:21;27.14;40.13
66213;SHT31;53015;50.046;8.238;2023-07-22T13:39:46;27.46;39.18
66213;SHT31;53015;50.046;8.238;2023-07-22T13:42:12;27.80;38.88
66213;SHT31;53015;50.046;8.238;2023-07-22T13:44:37;27.65;39.26
66213;SHT31;53015;50.046;8.238;2023-07-22T13:47:03;27.77;38.79
66213;SHT31;53015;50.046;8.238;2023-07-22T13:49:28;28.04;38.91
66213;SHT31;53015;50.046;8.238;2023-07-22T13:51:55;28.04;38.54
66213;SHT31;53015;50.046;8.238;2023-07-22T13:54:21;27.90;38.18
66213;SHT31;53015;50.046;8.238;2023-07-22T13:56:46;27.67;38.93
66213;SHT31;53015;50.046;8.238;2023-07-22T13:59:12;27.69;38.63
66213;SHT31;53015;50.046;8.238;2023-07-22T14:01:37;28.03;38.51
66213;SHT31;53015;50.046;8.238;2023-07-22T14:04:03;27.94;38.12
66213;SHT31;53015;50.046;8.238;2023-07-22T14:06:28;27.86;38.70
66213;SHT31;53015;50.046;8.238;2023-07-22T14:08:55;27.74;39.07
66213;SHT31;53015;50.046;8.238;2023-07-22T14:11:21;27.31;38.79
66213;SHT31;53015;50.046;8.238;2023-07-22T14:13:46;27.21;39.37
66213;SHT31;53015;50.046;8.238;2023-07-22T14:16:12;27.49;39.36
66213;SHT31;53015;50.046;8.238;2023-07-22T14:18:37;27.79;38.76
66213;SHT31;53015;50.046;8.238;2023-07-22T14:21:03;27.70;38.87
66213;SHT31;53015;50.046;8.238;2023-07-22T14:23:28;27.31;38.96
66213;SHT31;53015;50.046;8.238;2023-07-22T14:25:55;27.21;38.82
66213;SHT31;53015;50.046;8.238;2023-07-22T14:28:21;26.90;38.52
66213;SHT31;53015;50.046;8.238;2023-07-22T14:30:46;26.92;38.40
66213;SHT31;53015;50.046;8.238;2023-07-22T14:33:12;27.65;38.34
66213;SHT31;53015;50.046;8.238;2023-07-22T14:35:38;27.79;38.18
66213;SHT31;53015;50.046;8.238;2023-07-22T14:38:03;28.11;38.33
66213;SHT31;53015;50.046;8.238;2023-07-22T14:40:29;27.76;38.72
66213;SHT31;53015;50.046;8.238;2023-07-22T14:42:55;27.71;38.91
66213;SHT31;53015;50.046;8.238;2023-07-22T14:45:21;28.03;37.66
66213;SHT31;53015;50.046;8.238;2023-07-22T14:47:46;28.14;37.38
66213;SHT31;53015;50.046;8.238;2023-07-22T14:50:12;28.48;37.57
66213;SHT31;53015;50.046;8.238;2023-07-22T14:52:37;28.53;37.24
66213;SHT31;53015;50.046;8.238;2023-07-22T14:55:03;28.89;36.56
66213;SHT31;53015;50.046;8.238;2023-07-22T14:57:29;28.90;36.24
66213;SHT31;53015;50.046;8.238;2023-07-22T14:59:56;28.75;36.26
66213;SHT31;53015;50.046;8.238;2023-07-22T15:02:22;28.70;36.80
66213;SHT31;53015;50.046;8.238;2023-07-22T15:04:47;28.86;36.52
66213;SHT31;53015;50.046;8.238;2023-07-22T15:07:13;29.06;36.23
66213;SHT31;53015;50.046;8.238;2023-07-22T15:09:38;28.80;35.87
66213;SHT31;53015;50.046;8.238;2023-07-22T15:12:05;28.24;36.39
66213;SHT31;53015;50.046;8.238;2023-07-22T15:14:30;28.31;36.76
66213;SHT31;53015;50.046;8.238;2023-07-22T15:16:57;27.93;36.55
66213;SHT31;53015;50.046;8.238;2023-07-22T15:19:23;27.97;36.39
66213;SHT31;53015;50.046;8.238;2023-07-22T15:21:48;28.20;36.66
66213;SHT31;53015;50.046;8.238;2023-07-22T15:24:14;28.14;36.44